createdAt,value
2018-06-02T00:02:08.888Z,19.20
2018-06-02T00:05:11.955Z,19.20
2018-06-02T00:08:15.059Z,19.30
2018-06-02T00:11:18.148Z,19.20
2018-06-02T00:14:21.265Z,19.10
2018-06-02T00:17:24.333Z,19.10
2018-06-02T00:20:27.422Z,19.00
2018-06-02T00:23:30.505Z,19.00
2018-06-02T00:26:33.603Z,19.00
2018-06-02T00:29:36.691Z,19.00
2018-06-02T00:32:39.789Z,19.00
2018-06-02T00:35:43.709Z,18.90
2018-06-02T00:38:46.779Z,18.90
2018-06-02T00:41:49.863Z,19.00
2018-06-02T00:44:52.953Z,19.10
2018-06-02T00:47:56.045Z,19.10
2018-06-02T00:50:59.134Z,19.10
2018-06-02T00:54:02.347Z,19.00
2018-06-02T00:57:06.201Z,18.90
2018-06-02T01:00:09.437Z,18.90
2018-06-02T01:03:13.312Z,19.00
2018-06-02T01:06:16.392Z,19.00
2018-06-02T01:09:19.899Z,19.10
2018-06-02T01:12:23.045Z,19.00
2018-06-02T01:15:26.895Z,19.10
2018-06-02T01:18:29.971Z,19.10
2018-06-02T01:21:33.068Z,19.20
2018-06-02T01:24:36.148Z,19.30
2018-06-02T01:27:39.252Z,19.30
2018-06-02T01:30:42.328Z,19.30
2018-06-02T01:33:45.434Z,19.40
2018-06-02T01:36:48.508Z,19.50
2018-06-02T01:39:51.603Z,19.60
2018-06-02T01:42:54.679Z,19.50
2018-06-02T01:45:57.789Z,19.40
2018-06-02T01:49:00.870Z,19.40
2018-06-02T01:52:03.951Z,19.40
2018-06-02T01:55:07.025Z,19.40
2018-06-02T01:58:10.118Z,19.30
2018-06-02T02:01:13.192Z,19.20
2018-06-02T02:04:16.295Z,19.40
2018-06-02T02:07:19.376Z,19.30
2018-06-02T02:10:22.485Z,19.30
2018-06-02T02:13:25.575Z,19.20
2018-06-02T02:16:28.680Z,19.20
2018-06-02T02:19:31.760Z,19.20
2018-06-02T02:22:34.847Z,19.10
2018-06-02T02:25:37.936Z,19.10
2018-06-02T02:28:41.039Z,19.10
2018-06-02T02:31:44.106Z,19.00
2018-06-02T02:34:47.204Z,19.10
2018-06-02T02:37:50.270Z,19.00
2018-06-02T02:40:53.359Z,18.90
2018-06-02T02:43:56.434Z,18.80
2018-06-02T02:47:00.305Z,18.70
2018-06-02T02:50:03.385Z,18.60
2018-06-02T02:53:06.466Z,18.90
2018-06-02T02:56:09.553Z,19.00
2018-06-02T02:59:12.653Z,19.00
2018-06-02T03:02:15.715Z,19.00
2018-06-02T03:05:18.801Z,19.20
2018-06-02T03:08:21.889Z,19.20
2018-06-02T03:11:24.983Z,19.20
2018-06-02T03:14:28.064Z,19.30
2018-06-02T03:17:31.162Z,19.30
2018-06-02T03:20:34.242Z,19.20
2018-06-02T03:23:37.349Z,19.10
2018-06-02T03:26:40.423Z,19.10
2018-06-02T03:29:43.600Z,19.20
2018-06-02T03:32:46.651Z,19.20
2018-06-02T03:35:49.738Z,19.20
2018-06-02T03:38:52.823Z,19.20
2018-06-02T03:41:55.912Z,19.10
2018-06-02T03:44:58.991Z,19.10
2018-06-02T03:48:02.074Z,19.20
2018-06-02T03:51:05.143Z,19.30
2018-06-02T03:54:08.238Z,19.30
2018-06-02T03:57:11.310Z,19.20
2018-06-02T04:00:14.510Z,19.20
2018-06-02T04:03:18.404Z,19.20
2018-06-02T04:06:21.470Z,19.20
2018-06-02T04:09:24.550Z,19.40
2018-06-02T04:12:27.644Z,19.60
2018-06-02T04:15:30.715Z,19.70
2018-06-02T04:18:33.807Z,19.70
2018-06-02T04:21:36.890Z,19.70
2018-06-02T04:24:39.986Z,19.60
2018-06-02T04:27:43.067Z,19.50
2018-06-02T04:30:46.935Z,19.70
2018-06-02T04:33:50.006Z,19.70
2018-06-02T04:36:53.874Z,19.80
2018-06-02T04:39:56.952Z,19.80
2018-06-02T04:43:00.139Z,19.80
2018-06-02T04:46:03.218Z,19.70
2018-06-02T04:49:06.314Z,19.60
2018-06-02T04:52:09.384Z,19.50
2018-06-02T04:55:12.480Z,19.60
2018-06-02T04:58:15.554Z,19.60
2018-06-02T05:01:18.646Z,19.60
2018-06-02T05:04:21.759Z,19.60
2018-06-02T05:07:25.596Z,19.70
2018-06-02T05:10:28.677Z,19.60
2018-06-02T05:13:31.762Z,19.70
2018-06-02T05:16:34.843Z,19.60
2018-06-02T05:19:37.942Z,19.60
2018-06-02T05:22:41.204Z,19.60
2018-06-02T05:25:44.311Z,19.60
2018-06-02T05:28:47.390Z,19.70
2018-06-02T05:31:50.482Z,19.70
2018-06-02T05:34:53.649Z,19.70
2018-06-02T05:37:56.706Z,19.80
2018-06-02T05:40:59.782Z,19.80
2018-06-02T05:44:03.650Z,19.80
2018-06-02T05:47:06.719Z,19.80
2018-06-02T05:50:10.569Z,19.80
2018-06-02T05:53:13.644Z,19.80
2018-06-02T05:56:16.749Z,19.90
2018-06-02T05:59:19.823Z,20.00
2018-06-02T06:02:22.933Z,20.00
2018-06-02T06:05:26.083Z,20.10
2018-06-02T06:08:29.937Z,20.20
2018-06-02T06:11:33.014Z,20.20
2018-06-02T06:14:36.107Z,20.30
2018-06-02T06:17:39.182Z,20.50
2018-06-02T06:20:42.288Z,20.50
2018-06-02T06:23:45.361Z,20.60
2018-06-02T06:26:48.462Z,20.80
2018-06-02T06:29:51.526Z,20.90
2018-06-02T06:32:54.673Z,21.00
2018-06-02T06:35:57.703Z,20.90
2018-06-02T06:39:00.852Z,21.00
2018-06-02T06:42:03.921Z,21.10
2018-06-02T06:45:07.006Z,21.20
2018-06-02T06:48:10.095Z,21.30
2018-06-02T06:51:13.292Z,21.30
2018-06-02T06:54:16.372Z,21.40
2018-06-02T06:57:19.479Z,21.80
2018-06-02T07:00:22.534Z,22.10
2018-06-02T07:03:25.670Z,22.60
2018-06-02T07:06:28.746Z,22.80
2018-06-02T07:09:31.865Z,23.60
2018-06-02T07:12:35.706Z,24.50
2018-06-02T07:15:38.824Z,24.50
2018-06-02T07:18:41.882Z,25.40
2018-06-02T07:21:45.008Z,25.60
2018-06-02T07:24:48.085Z,25.70
2018-06-02T07:27:51.154Z,26.00
2018-06-02T07:30:54.230Z,26.30
2018-06-02T07:33:57.331Z,26.40
2018-06-02T07:37:00.406Z,25.90
2018-06-02T07:40:04.314Z,25.70
2018-06-02T07:43:07.367Z,25.60
2018-06-02T07:46:10.753Z,25.60
2018-06-02T07:49:13.817Z,25.40
2018-06-02T07:52:16.964Z,25.30
2018-06-02T07:55:20.015Z,25.30
2018-06-02T07:58:23.111Z,25.50
2018-06-02T08:01:26.178Z,25.60
2018-06-02T08:04:29.274Z,25.60
2018-06-02T08:07:32.350Z,26.00
2018-06-02T08:10:35.451Z,26.30
2018-06-02T08:13:38.529Z,26.90
2018-06-02T08:16:41.694Z,27.10
2018-06-02T08:19:44.738Z,27.40
2018-06-02T08:22:47.827Z,27.50
2018-06-02T08:25:50.905Z,27.50
2018-06-02T08:28:54.118Z,27.30
2018-06-02T08:31:57.190Z,26.90
2018-06-02T08:35:00.379Z,26.50
2018-06-02T08:38:03.450Z,26.00
2018-06-02T08:41:06.551Z,25.70
2018-06-02T08:44:09.621Z,25.20
2018-06-02T08:47:12.706Z,24.90
2018-06-02T08:50:15.775Z,24.90
2018-06-02T08:53:19.649Z,25.00
2018-06-02T08:56:22.723Z,24.90
2018-06-02T08:59:25.832Z,24.90
2018-06-02T09:02:28.886Z,25.00
2018-06-02T09:05:31.982Z,24.90
2018-06-02T09:08:35.136Z,24.70
2018-06-02T09:11:38.203Z,25.00
2018-06-02T09:14:41.280Z,25.20
2018-06-02T09:17:44.404Z,25.40
2018-06-02T09:20:48.313Z,25.30
2018-06-02T09:23:51.402Z,25.30
2018-06-02T09:26:54.457Z,25.30
2018-06-02T09:29:58.352Z,25.80
2018-06-02T09:33:01.434Z,25.80
2018-06-02T09:36:04.530Z,26.20
2018-06-02T09:39:07.619Z,26.30
2018-06-02T09:42:10.719Z,26.10
2018-06-02T09:45:14.159Z,25.90
2018-06-02T09:48:17.246Z,25.80
2018-06-02T09:51:20.304Z,25.50
2018-06-02T09:54:23.394Z,25.30
2018-06-02T09:57:26.467Z,25.20
2018-06-02T10:00:30.668Z,25.10
2018-06-02T10:03:33.752Z,24.80
2018-06-02T10:06:36.861Z,24.50
2018-06-02T10:09:39.941Z,24.20
2018-06-02T10:12:43.026Z,23.90
2018-06-02T10:15:46.129Z,23.80
2018-06-02T10:18:49.204Z,23.80
2018-06-02T10:21:52.356Z,23.80
2018-06-02T10:24:55.448Z,23.80
2018-06-02T10:27:58.509Z,23.80
2018-06-02T10:31:01.619Z,23.80
2018-06-02T10:34:05.547Z,23.90
2018-06-02T10:37:08.659Z,23.80
2018-06-02T10:40:11.728Z,23.80
2018-06-02T10:43:14.810Z,23.90
2018-06-02T10:46:17.888Z,23.90
2018-06-02T10:49:21.755Z,23.90
2018-06-02T10:52:24.839Z,23.90
2018-06-02T10:55:27.922Z,23.90
2018-06-02T10:58:31.000Z,24.00
2018-06-02T11:01:34.145Z,24.10
2018-06-02T11:04:37.176Z,24.10
2018-06-02T11:07:40.849Z,24.20
2018-06-02T11:10:43.898Z,24.20
2018-06-02T11:13:47.003Z,24.20
2018-06-02T11:16:50.078Z,24.10
2018-06-02T11:19:53.174Z,24.00
2018-06-02T11:22:56.256Z,24.00
2018-06-02T11:25:59.352Z,24.10
2018-06-02T11:29:02.435Z,24.00
2018-06-02T11:32:05.524Z,24.00
2018-06-02T11:35:08.594Z,24.10
2018-06-02T11:38:11.692Z,24.10
2018-06-02T11:41:14.862Z,24.30
2018-06-02T11:44:18.126Z,24.30
2018-06-02T11:47:21.262Z,24.40
2018-06-02T11:50:24.411Z,24.40
2018-06-02T11:53:27.467Z,24.50
2018-06-02T11:56:30.550Z,24.80
2018-06-02T11:59:33.618Z,24.90
2018-06-02T12:02:36.723Z,25.00
2018-06-02T12:05:39.802Z,25.10
2018-06-02T12:08:42.922Z,25.30
2018-06-02T12:11:46.006Z,25.50
2018-06-02T12:14:49.232Z,25.50
2018-06-02T12:17:52.290Z,25.60
2018-06-02T12:20:55.384Z,25.60
2018-06-02T12:23:58.454Z,25.70
2018-06-02T12:27:01.567Z,25.70
2018-06-02T12:30:04.674Z,25.70
2018-06-02T12:33:07.758Z,25.80
2018-06-02T12:36:11.594Z,25.90
2018-06-02T12:39:14.697Z,25.90
2018-06-02T12:42:17.775Z,25.90
2018-06-02T12:45:20.885Z,26.00
2018-06-02T12:48:23.968Z,26.00
2018-06-02T12:51:27.149Z,26.00
2018-06-02T12:54:30.222Z,25.80
2018-06-02T12:57:33.349Z,25.80
2018-06-02T13:00:36.445Z,25.80
2018-06-02T13:03:39.542Z,26.00
2018-06-02T13:06:42.646Z,26.20
2018-06-02T13:09:45.703Z,26.30
2018-06-02T13:12:48.808Z,26.50
2018-06-02T13:15:51.886Z,26.40
2018-06-02T13:18:54.958Z,26.40
2018-06-02T13:21:58.051Z,26.30
2018-06-02T13:25:01.139Z,26.30
2018-06-02T13:28:04.239Z,26.30
2018-06-02T13:31:07.311Z,26.20
2018-06-02T13:34:10.406Z,26.20
2018-06-02T13:37:13.496Z,26.40
2018-06-02T13:40:16.592Z,26.30
2018-06-02T13:43:19.670Z,26.10
2018-06-02T13:46:22.835Z,26.10
2018-06-02T13:49:25.878Z,26.40
2018-06-02T13:52:28.962Z,26.60
2018-06-02T13:55:32.819Z,26.80
2018-06-02T13:58:35.911Z,26.80
2018-06-02T14:01:39.820Z,26.60
2018-06-02T14:04:42.887Z,26.60
2018-06-02T14:07:46.098Z,26.70
2018-06-02T14:10:49.167Z,26.80
2018-06-02T14:13:52.278Z,26.80
2018-06-02T14:16:55.355Z,26.70
2018-06-02T14:19:58.422Z,26.50
2018-06-02T14:23:01.519Z,26.40
2018-06-02T14:26:04.593Z,26.60
2018-06-02T14:29:07.696Z,26.50
2018-06-02T14:32:11.538Z,26.30
2018-06-02T14:35:14.639Z,26.30
2018-06-02T14:38:17.725Z,25.90
2018-06-02T14:41:20.849Z,25.80
2018-06-02T14:44:23.919Z,25.80
2018-06-02T14:47:27.017Z,25.80
2018-06-02T14:50:30.091Z,25.50
2018-06-02T14:53:33.179Z,25.50
2018-06-02T14:56:36.263Z,25.40
2018-06-02T14:59:39.358Z,25.40
2018-06-02T15:02:42.438Z,25.50
2018-06-02T15:05:45.529Z,25.60
2018-06-02T15:08:48.598Z,25.70
2018-06-02T15:11:52.514Z,25.70
2018-06-02T15:14:55.579Z,25.70
2018-06-02T15:17:58.662Z,25.90
2018-06-02T15:21:01.784Z,25.90
2018-06-02T15:24:04.854Z,25.80
2018-06-02T15:27:07.943Z,25.40
2018-06-02T15:30:11.052Z,25.40
2018-06-02T15:33:14.107Z,25.40
2018-06-02T15:36:17.228Z,25.40
2018-06-02T15:39:21.062Z,25.00
2018-06-02T15:42:24.159Z,25.00
2018-06-02T15:45:27.245Z,25.20
2018-06-02T15:48:30.465Z,25.20
2018-06-02T15:51:33.520Z,25.30
2018-06-02T15:54:36.690Z,25.40
2018-06-02T15:57:39.776Z,25.50
2018-06-02T16:00:42.880Z,25.50
2018-06-02T16:03:45.960Z,25.60
2018-06-02T16:06:49.830Z,25.60
2018-06-02T16:09:52.921Z,25.60
2018-06-02T16:12:56.049Z,25.80
2018-06-02T16:15:59.100Z,25.80
2018-06-02T16:19:02.196Z,25.60
2018-06-02T16:22:05.276Z,25.30
2018-06-02T16:25:08.374Z,25.30
2018-06-02T16:28:11.459Z,25.20
2018-06-02T16:31:14.556Z,25.30
2018-06-02T16:34:17.695Z,25.10
2018-06-02T16:37:20.724Z,24.90
2018-06-02T16:40:23.814Z,24.70
2018-06-02T16:43:26.911Z,24.40
2018-06-02T16:46:29.985Z,24.10
2018-06-02T16:49:33.089Z,24.10
2018-06-02T16:52:36.310Z,23.80
2018-06-02T16:55:40.223Z,23.70
2018-06-02T16:58:43.270Z,23.70
2018-06-02T17:01:46.370Z,23.80
2018-06-02T17:04:49.455Z,23.70
2018-06-02T17:07:52.578Z,23.80
2018-06-02T17:10:55.639Z,23.70
2018-06-02T17:13:58.752Z,23.60
2018-06-02T17:17:02.603Z,23.50
2018-06-02T17:20:05.784Z,23.50
2018-06-02T17:23:09.693Z,23.20
2018-06-02T17:26:12.786Z,23.10
2018-06-02T17:29:15.866Z,23.10
2018-06-02T17:32:18.955Z,23.00
2018-06-02T17:35:22.026Z,22.80
2018-06-02T17:38:25.132Z,22.80
2018-06-02T17:41:28.219Z,22.70
2018-06-02T17:44:31.317Z,22.70
2018-06-02T17:47:34.394Z,22.70
2018-06-02T17:50:37.477Z,22.70
2018-06-02T17:53:40.554Z,22.60
2018-06-02T17:56:44.424Z,22.50
2018-06-02T17:59:48.259Z,22.50
2018-06-02T18:02:52.117Z,22.40
2018-06-02T18:05:55.206Z,22.40
2018-06-02T18:08:58.370Z,22.40
2018-06-02T18:12:01.462Z,22.30
2018-06-02T18:15:04.557Z,22.30
2018-06-02T18:18:07.637Z,22.30
2018-06-02T18:21:11.483Z,22.30
2018-06-02T18:24:14.556Z,22.40
2018-06-02T18:27:17.655Z,22.40
2018-06-02T18:30:20.731Z,22.40
2018-06-02T18:33:24.391Z,22.30
2018-06-02T18:36:27.604Z,22.30
2018-06-02T18:39:30.744Z,22.20
2018-06-02T18:42:33.821Z,22.30
2018-06-02T18:45:37.219Z,22.20
2018-06-02T18:48:40.313Z,22.20
2018-06-02T18:51:43.461Z,22.20
2018-06-02T18:54:46.507Z,22.20
2018-06-02T18:57:49.747Z,22.10
2018-06-02T19:00:52.798Z,22.10
2018-06-02T19:03:55.917Z,22.10
2018-06-02T19:06:59.750Z,22.00
2018-06-02T19:10:02.858Z,22.00
2018-06-02T19:13:05.922Z,21.90
2018-06-02T19:16:09.024Z,21.80
2018-06-02T19:19:12.184Z,21.80
2018-06-02T19:22:15.256Z,21.70
2018-06-02T19:25:18.327Z,21.70
2018-06-02T19:28:21.428Z,21.60
2018-06-02T19:31:24.675Z,21.50
2018-06-02T19:34:27.780Z,21.40
2018-06-02T19:37:30.861Z,21.40
2018-06-02T19:40:33.951Z,21.40
2018-06-02T19:43:37.019Z,21.40
2018-06-02T19:46:40.151Z,21.30
2018-06-02T19:49:43.285Z,21.30
2018-06-02T19:52:46.351Z,21.30
2018-06-02T19:55:49.443Z,21.30
2018-06-02T19:58:52.554Z,21.20
2018-06-02T20:05:14.387Z,21.10
2018-06-02T20:08:18.229Z,21.10
2018-06-02T20:15:09.158Z,21.20
2018-06-02T20:18:17.476Z,21.10
2018-06-02T20:28:36.023Z,21.20
2018-06-02T20:35:31.410Z,21.10
2018-06-02T20:38:51.774Z,21.00
2018-06-02T20:41:56.946Z,21.00
2018-06-02T20:45:00.038Z,21.00
2018-06-02T20:48:33.078Z,21.00
2018-06-02T20:54:40.055Z,20.80
2018-06-02T20:57:43.686Z,20.80
2018-06-02T21:00:47.335Z,20.80
2018-06-02T21:10:36.086Z,20.80
2018-06-02T21:13:39.963Z,20.70
2018-06-02T21:16:48.431Z,20.70
2018-06-02T21:30:52.850Z,20.70
2018-06-02T21:33:56.545Z,20.70
2018-06-02T21:40:34.662Z,20.70
2018-06-02T21:43:38.294Z,20.70
2018-06-02T21:46:41.962Z,20.60
2018-06-02T21:49:45.607Z,20.60
2018-06-02T21:52:49.236Z,20.50
2018-06-02T21:55:53.782Z,20.40
2018-06-02T21:58:57.391Z,20.40
2018-06-02T22:02:01.047Z,20.30
2018-06-02T22:05:04.664Z,20.30
2018-06-02T22:08:08.299Z,20.20
2018-06-02T22:11:11.947Z,20.10
2018-06-02T22:14:15.647Z,20.10
2018-06-02T22:20:22.999Z,20.00
2018-06-02T22:23:26.612Z,20.00
2018-06-02T22:26:30.271Z,20.00
2018-06-02T22:29:33.890Z,20.00
2018-06-02T22:32:37.566Z,20.00
2018-06-02T22:38:44.569Z,20.00
2018-06-02T22:44:51.575Z,20.10
2018-06-02T22:47:55.203Z,20.10
2018-06-02T22:50:58.881Z,20.10
2018-06-02T22:54:02.542Z,20.10
2018-06-02T22:57:06.527Z,20.10
2018-06-02T23:00:12.561Z,20.10
2018-06-02T23:03:16.190Z,20.10
2018-06-02T23:06:19.801Z,20.00
2018-06-02T23:09:23.443Z,20.00
2018-06-02T23:12:27.051Z,19.90
2018-06-02T23:15:30.689Z,19.90
2018-06-02T23:18:34.319Z,20.00
2018-06-02T23:21:37.952Z,19.90
2018-06-02T23:27:44.932Z,19.90
2018-06-02T23:30:48.601Z,19.80
2018-06-02T23:36:55.522Z,19.70
2018-06-02T23:39:59.177Z,19.70
2018-06-02T23:43:02.869Z,19.70
2018-06-02T23:46:06.509Z,19.80
2018-06-02T23:49:10.154Z,19.70
2018-06-02T23:55:17.242Z,19.70
2018-06-02T23:58:20.964Z,19.70
